createdAt,value
2022-09-16T00:02:42.921Z,54.48
2022-09-16T00:05:50.127Z,53.57
2022-09-16T00:08:55.395Z,54.07
2022-09-16T00:11:58.606Z,53.36
2022-09-16T00:15:01.766Z,55.03
2022-09-16T00:18:05.212Z,54.13
2022-09-16T00:21:11.245Z,53.51
2022-09-16T00:24:15.725Z,53.59
2022-09-16T00:27:19.031Z,53.65
2022-09-16T00:30:22.197Z,54.08
2022-09-16T00:33:25.905Z,55.37
2022-09-16T00:36:31.103Z,54.96
2022-09-16T00:39:34.489Z,55.20
2022-09-16T00:42:41.847Z,55.64
2022-09-16T00:45:47.858Z,55.49
2022-09-16T00:48:51.737Z,55.71
2022-09-16T00:52:01.979Z,55.70
2022-09-16T00:55:09.760Z,56.13
2022-09-16T00:58:19.692Z,55.23
2022-09-16T01:01:23.588Z,55.82
2022-09-16T01:04:30.697Z,55.51
2022-09-16T01:07:41.285Z,54.80
2022-09-16T01:10:44.715Z,54.70
2022-09-16T01:13:48.677Z,55.79
2022-09-16T01:16:59.711Z,55.79
2022-09-16T01:20:35.921Z,55.19
2022-09-16T01:24:14.621Z,54.98
2022-09-16T01:27:56.053Z,56.79
2022-09-16T01:31:13.011Z,55.68
2022-09-16T01:34:25.460Z,55.90
2022-09-16T01:37:39.125Z,55.44
2022-09-16T01:40:51.008Z,57.20
2022-09-16T01:44:00.883Z,58.06
2022-09-16T01:47:12.000Z,57.41
2022-09-16T01:50:22.796Z,57.16
2022-09-16T01:53:34.039Z,56.93
2022-09-16T01:56:44.714Z,56.71
2022-09-16T01:59:53.750Z,57.41
2022-09-16T02:03:03.497Z,57.34
2022-09-16T02:06:09.744Z,57.69
2022-09-16T02:09:17.549Z,56.60
2022-09-16T02:12:26.595Z,56.44
2022-09-16T02:15:31.631Z,56.78
2022-09-16T02:18:41.063Z,57.77
2022-09-16T02:21:46.068Z,57.60
2022-09-16T02:24:50.036Z,56.96
2022-09-16T02:27:55.326Z,56.28
2022-09-16T02:31:02.436Z,56.58
2022-09-16T02:34:14.015Z,56.35
2022-09-16T02:37:19.966Z,55.46
2022-09-16T02:40:27.049Z,57.60
2022-09-16T02:43:31.035Z,57.88
2022-09-16T02:46:40.991Z,56.85
2022-09-16T02:49:53.068Z,57.46
2022-09-16T02:53:01.498Z,56.49
2022-09-16T02:56:13.466Z,58.59
2022-09-16T02:59:18.018Z,57.12
2022-09-16T03:02:21.623Z,56.18
2022-09-16T03:05:30.155Z,55.67
2022-09-16T03:08:33.699Z,56.61
2022-09-16T03:11:58.325Z,56.19
2022-09-16T03:15:15.707Z,56.66
2022-09-16T03:18:34.834Z,56.43
2022-09-16T03:21:45.877Z,57.38
2022-09-16T03:24:58.150Z,57.46
2022-09-16T03:28:09.709Z,57.31
2022-09-16T03:31:19.360Z,57.47
2022-09-16T03:34:28.325Z,57.36
2022-09-16T03:37:35.716Z,57.40
2022-09-16T03:40:39.612Z,57.68
2022-09-16T03:43:53.080Z,57.62
2022-09-16T03:46:57.149Z,56.59
2022-09-16T03:50:00.340Z,55.88
2022-09-16T03:53:05.500Z,56.74
2022-09-16T03:56:09.064Z,56.12
2022-09-16T03:59:12.301Z,56.77
2022-09-16T04:02:15.510Z,56.51
2022-09-16T04:05:18.835Z,56.82
2022-09-16T04:08:23.927Z,57.61
2022-09-16T04:11:29.769Z,58.30
2022-09-16T04:14:33.067Z,58.64
2022-09-16T04:17:36.516Z,58.05
2022-09-16T04:20:40.179Z,58.74
2022-09-16T04:23:44.824Z,58.22
2022-09-16T04:26:48.109Z,57.78
2022-09-16T04:29:51.359Z,58.48
2022-09-16T04:32:55.456Z,58.19
2022-09-16T04:36:04.597Z,57.78
2022-09-16T04:39:09.356Z,58.89
2022-09-16T04:42:13.365Z,58.35
2022-09-16T04:45:16.714Z,57.39
2022-09-16T04:48:19.996Z,56.69
2022-09-16T04:51:25.639Z,57.99
2022-09-16T04:54:30.347Z,59.34
2022-09-16T04:57:34.095Z,57.43
2022-09-16T05:00:37.309Z,58.31
2022-09-16T05:03:41.226Z,58.98
2022-09-16T05:06:50.700Z,58.05
2022-09-16T05:09:55.311Z,57.54
2022-09-16T05:12:58.569Z,57.88
2022-09-16T05:16:07.461Z,58.12
2022-09-16T05:19:13.261Z,57.03
2022-09-16T05:22:16.449Z,57.00
2022-09-16T05:25:21.409Z,56.81
2022-09-16T05:28:24.617Z,55.80
2022-09-16T05:31:29.248Z,55.09
2022-09-16T05:34:32.673Z,54.38
2022-09-16T05:37:35.866Z,53.94
2022-09-16T05:40:40.517Z,53.39
2022-09-16T05:43:43.981Z,52.03
2022-09-16T05:46:47.186Z,50.96
2022-09-16T05:49:50.437Z,52.26
2022-09-16T05:52:53.607Z,52.55
2022-09-16T05:55:59.692Z,51.77
2022-09-16T05:59:03.290Z,51.14
2022-09-16T06:02:06.614Z,48.67
2022-09-16T06:05:10.159Z,48.66
2022-09-16T06:08:13.411Z,46.72
2022-09-16T06:11:18.282Z,47.73
2022-09-16T06:14:22.755Z,47.37
2022-09-16T06:17:25.957Z,47.54
2022-09-16T06:20:29.236Z,48.13
2022-09-16T06:23:32.560Z,46.69
2022-09-16T06:26:38.929Z,47.13
2022-09-16T06:29:42.127Z,47.19
2022-09-16T06:32:45.405Z,47.30
2022-09-16T06:35:48.615Z,46.69
2022-09-16T06:38:52.333Z,46.30
2022-09-16T06:41:56.990Z,44.95
2022-09-16T06:45:12.768Z,44.10
2022-09-16T06:48:16.019Z,44.28
2022-09-16T06:51:22.931Z,43.67
2022-09-16T06:54:26.288Z,44.02
2022-09-16T06:57:32.242Z,43.77
2022-09-16T07:00:35.496Z,43.85
2022-09-16T07:03:39.998Z,43.66
2022-09-16T07:07:09.228Z,42.26
2022-09-16T07:10:07.624Z,43.22
2022-09-16T07:13:12.205Z,42.27
2022-09-16T07:16:19.119Z,42.46
2022-09-16T07:19:22.459Z,41.76
2022-09-16T07:22:25.666Z,41.11
2022-09-16T07:25:32.465Z,41.00
2022-09-16T07:28:41.120Z,41.51
2022-09-16T07:31:44.587Z,41.03
2022-09-16T07:34:47.793Z,41.20
2022-09-16T07:37:51.000Z,40.83
2022-09-16T07:40:54.255Z,39.80
2022-09-16T07:44:00.697Z,39.16
2022-09-16T07:47:04.052Z,39.56
2022-09-16T07:50:08.349Z,39.78
2022-09-16T07:53:11.547Z,40.44
2022-09-16T07:56:17.655Z,39.75
2022-09-16T07:59:22.277Z,39.64
2022-09-16T08:02:25.647Z,38.92
2022-09-16T08:05:28.917Z,38.98
2022-09-16T08:08:32.338Z,38.46
2022-09-16T08:11:35.648Z,38.12
2022-09-16T08:14:40.320Z,37.03
2022-09-16T08:17:43.656Z,36.38
2022-09-16T08:20:46.910Z,36.83
2022-09-16T08:23:50.578Z,37.00
2022-09-16T08:30:05.059Z,35.28
2022-09-16T08:33:08.537Z,35.83
2022-09-16T08:36:15.887Z,36.63
2022-09-16T08:39:19.686Z,37.34
2022-09-16T08:42:33.198Z,35.28
2022-09-16T08:45:45.733Z,34.63
2022-09-16T08:48:57.086Z,34.86
2022-09-16T08:52:03.875Z,34.33
2022-09-16T08:55:12.043Z,34.12
2022-09-16T08:58:18.717Z,33.87
2022-09-16T09:01:31.140Z,33.39
2022-09-16T09:04:34.695Z,33.08
2022-09-16T09:07:54.827Z,32.71
2022-09-16T09:11:03.423Z,32.85
2022-09-16T09:14:29.940Z,32.54
2022-09-16T09:17:49.426Z,32.44
2022-09-16T09:21:00.541Z,33.11
2022-09-16T09:24:28.439Z,32.07
2022-09-16T09:27:41.854Z,31.32
2022-09-16T09:30:53.718Z,33.39
2022-09-16T09:34:13.293Z,33.97
2022-09-16T09:37:36.975Z,33.71
2022-09-16T09:40:45.102Z,32.94
2022-09-16T09:43:54.086Z,32.35
2022-09-16T09:47:03.010Z,33.10
2022-09-16T09:50:17.886Z,33.11
2022-09-16T09:53:25.325Z,32.71
2022-09-16T09:56:33.274Z,33.35
2022-09-16T09:59:42.593Z,33.47
2022-09-16T10:02:49.857Z,33.43
2022-09-16T10:05:54.819Z,33.33
2022-09-16T10:09:00.308Z,33.06
2022-09-16T10:12:04.638Z,33.58
2022-09-16T10:15:20.271Z,33.41
2022-09-16T10:18:29.805Z,33.21
2022-09-16T10:21:45.938Z,33.02
2022-09-16T10:24:55.984Z,33.12
2022-09-16T10:28:01.466Z,32.55
2022-09-16T10:31:08.258Z,32.00
2022-09-16T10:34:19.483Z,32.41
2022-09-16T10:37:27.929Z,31.32
2022-09-16T10:40:32.624Z,32.24
2022-09-16T10:43:39.065Z,31.64
2022-09-16T10:46:53.095Z,30.41
2022-09-16T10:49:58.473Z,30.29
2022-09-16T10:53:03.214Z,30.86
2022-09-16T10:56:08.564Z,31.17
2022-09-16T10:59:13.310Z,30.12
2022-09-16T11:02:32.436Z,29.74
2022-09-16T11:05:45.887Z,28.67
2022-09-16T11:09:01.307Z,28.40
2022-09-16T11:12:28.000Z,28.00
2022-09-16T11:15:44.324Z,27.63
2022-09-16T11:18:57.479Z,28.57
2022-09-16T11:22:13.563Z,27.70
2022-09-16T11:25:30.760Z,27.41
2022-09-16T11:28:56.624Z,27.50
2022-09-16T11:32:11.103Z,28.12
2022-09-16T11:35:34.929Z,27.44
2022-09-16T11:38:46.930Z,28.58
2022-09-16T11:42:02.539Z,28.42
2022-09-16T11:45:22.033Z,27.78
2022-09-16T11:48:42.672Z,27.66
2022-09-16T11:52:02.638Z,28.01
2022-09-16T11:55:23.839Z,27.94
2022-09-16T11:58:45.357Z,28.27
2022-09-16T12:01:54.075Z,28.73
2022-09-16T12:05:03.230Z,28.50
2022-09-16T12:08:12.309Z,28.30
2022-09-16T12:11:33.007Z,28.21
2022-09-16T12:14:40.266Z,28.06
2022-09-16T12:17:52.117Z,27.74
2022-09-16T12:21:04.247Z,27.75
2022-09-16T12:24:13.449Z,28.26
2022-09-16T12:27:28.891Z,26.94
2022-09-16T12:30:38.796Z,26.59
2022-09-16T12:33:47.341Z,26.53
2022-09-16T12:37:00.552Z,26.99
2022-09-16T12:40:05.866Z,28.52
2022-09-16T12:43:37.185Z,30.10
2022-09-16T12:47:14.367Z,30.47
2022-09-16T12:50:41.088Z,32.10
2022-09-16T12:53:57.635Z,32.56
2022-09-16T12:57:26.008Z,31.45
2022-09-16T13:00:33.862Z,31.45
2022-09-16T13:03:43.973Z,31.97
2022-09-16T13:06:50.325Z,32.67
2022-09-16T13:10:03.172Z,32.70
2022-09-16T13:13:08.852Z,32.30
2022-09-16T13:16:12.653Z,32.17
2022-09-16T13:19:42.387Z,32.44
2022-09-16T13:22:50.254Z,33.21
2022-09-16T13:26:00.529Z,33.19
2022-09-16T13:29:03.780Z,33.68
2022-09-16T13:32:07.114Z,33.08
2022-09-16T13:35:35.832Z,34.17
2022-09-16T13:38:40.801Z,34.27
2022-09-16T13:41:46.887Z,33.69
2022-09-16T13:44:50.212Z,33.76
2022-09-16T13:47:54.113Z,34.19
2022-09-16T13:51:00.779Z,33.70
2022-09-16T13:54:04.638Z,33.40
2022-09-16T13:57:22.998Z,34.03
2022-09-16T14:00:32.370Z,33.64
2022-09-16T14:03:47.725Z,33.79
2022-09-16T14:07:07.635Z,33.97
2022-09-16T14:10:18.314Z,35.09
2022-09-16T14:13:23.486Z,35.34
2022-09-16T14:16:29.280Z,35.34
2022-09-16T14:19:36.963Z,35.26
2022-09-16T14:22:44.482Z,36.04
2022-09-16T14:25:49.351Z,35.67
2022-09-16T14:29:04.092Z,35.80
2022-09-16T14:32:14.830Z,36.40
2022-09-16T14:35:21.005Z,35.75
2022-09-16T14:41:59.611Z,35.92
2022-09-16T14:45:04.204Z,35.58
2022-09-16T14:48:10.437Z,35.61
2022-09-16T14:51:21.796Z,35.38
2022-09-16T14:54:28.344Z,35.65
2022-09-16T14:57:33.471Z,35.75
2022-09-16T15:00:44.316Z,35.25
2022-09-16T15:03:52.937Z,35.80
2022-09-16T15:07:03.974Z,35.79
2022-09-16T15:10:18.084Z,35.63
2022-09-16T15:13:24.217Z,35.64
2022-09-16T15:16:28.523Z,36.06
2022-09-16T15:19:35.431Z,36.34
2022-09-16T15:22:41.738Z,36.38
2022-09-16T15:25:54.872Z,35.91
2022-09-16T15:29:00.732Z,36.23
2022-09-16T15:32:19.595Z,36.73
2022-09-16T15:35:25.233Z,36.44
2022-09-16T15:38:29.633Z,36.78
2022-09-16T15:41:34.419Z,36.64
2022-09-16T15:44:38.638Z,36.42
2022-09-16T15:47:59.447Z,36.89
2022-09-16T15:51:06.809Z,37.72
2022-09-16T15:54:18.839Z,37.48
2022-09-16T15:57:31.766Z,38.30
2022-09-16T16:00:59.361Z,37.80
2022-09-16T16:04:04.664Z,38.28
2022-09-16T16:07:09.013Z,38.62
2022-09-16T16:10:15.196Z,38.54
2022-09-16T16:13:19.818Z,38.68
2022-09-16T16:16:23.243Z,38.72
2022-09-16T16:19:26.831Z,38.63
2022-09-16T16:22:30.003Z,39.18
2022-09-16T16:25:33.492Z,38.62
2022-09-16T16:28:39.177Z,39.12
2022-09-16T16:31:42.422Z,39.45
2022-09-16T16:34:47.850Z,39.49
2022-09-16T16:37:51.036Z,39.59
2022-09-16T16:40:54.242Z,39.42
2022-09-16T16:43:58.976Z,39.54
2022-09-16T16:47:02.693Z,40.33
2022-09-16T16:50:06.706Z,40.42
2022-09-16T16:53:10.051Z,40.77
2022-09-16T16:56:15.652Z,40.50
2022-09-16T16:59:21.304Z,40.64
2022-09-16T17:02:24.798Z,40.71
2022-09-16T17:05:28.173Z,40.95
2022-09-16T17:08:31.414Z,41.05
2022-09-16T17:11:35.163Z,41.63
2022-09-16T17:14:39.701Z,41.02
2022-09-16T17:17:42.962Z,41.64
2022-09-16T17:20:46.121Z,41.65
2022-09-16T17:23:49.498Z,41.99
2022-09-16T17:26:52.739Z,41.84
2022-09-16T17:29:57.314Z,42.06
2022-09-16T17:33:00.585Z,41.85
2022-09-16T17:36:05.946Z,41.92
2022-09-16T17:39:13.505Z,41.79
2022-09-16T17:42:17.017Z,43.03
2022-09-16T17:45:21.612Z,43.10
2022-09-16T17:48:24.884Z,42.51
2022-09-16T17:51:28.409Z,42.94
2022-09-16T17:54:31.602Z,43.13
2022-09-16T17:57:34.867Z,43.08
2022-09-16T18:00:39.979Z,43.65
2022-09-16T18:03:45.726Z,43.67
2022-09-16T18:06:48.954Z,43.36
2022-09-16T18:09:52.226Z,44.49
2022-09-16T18:12:55.460Z,44.33
2022-09-16T18:16:05.124Z,44.01
2022-09-16T18:19:08.706Z,44.12
2022-09-16T18:22:11.995Z,44.35
2022-09-16T18:25:15.388Z,44.18
2022-09-16T18:28:18.644Z,44.77
2022-09-16T18:31:24.601Z,45.53
2022-09-16T18:34:32.649Z,44.92
2022-09-16T18:37:36.662Z,45.51
2022-09-16T18:40:40.004Z,45.25
2022-09-16T18:43:45.237Z,44.91
2022-09-16T18:46:50.028Z,45.18
2022-09-16T18:49:53.292Z,45.02
2022-09-16T18:52:56.450Z,45.13
2022-09-16T18:56:00.369Z,45.14
2022-09-16T18:59:23.437Z,45.32
2022-09-16T19:02:28.728Z,45.42
2022-09-16T19:05:31.829Z,45.76
2022-09-16T19:08:36.083Z,46.39
2022-09-16T19:11:40.151Z,45.93
2022-09-16T19:14:43.620Z,46.86
2022-09-16T19:17:48.264Z,46.16
2022-09-16T19:20:51.605Z,46.73
2022-09-16T19:23:57.313Z,47.42
2022-09-16T19:27:00.545Z,47.24
2022-09-16T19:30:04.086Z,47.47
2022-09-16T19:33:08.737Z,47.39
2022-09-16T19:36:13.327Z,46.76
2022-09-16T19:39:16.633Z,46.31
2022-09-16T19:42:19.876Z,47.07
2022-09-16T19:45:27.712Z,46.83
2022-09-16T19:48:33.752Z,46.50
2022-09-16T19:51:37.827Z,46.62
2022-09-16T19:54:41.075Z,47.66
2022-09-16T19:57:44.287Z,46.98
2022-09-16T20:00:56.309Z,47.18
2022-09-16T20:04:01.684Z,46.65
2022-09-16T20:07:05.912Z,47.66
2022-09-16T20:10:09.757Z,48.02
2022-09-16T20:13:13.497Z,47.99
2022-09-16T20:16:17.513Z,48.23
2022-09-16T20:19:22.124Z,47.94
2022-09-16T20:22:25.442Z,47.77
2022-09-16T20:25:56.638Z,47.87
2022-09-16T20:29:00.513Z,48.04
2022-09-16T20:32:04.127Z,48.53
2022-09-16T20:35:09.828Z,48.95
2022-09-16T20:38:13.109Z,49.71
2022-09-16T20:41:19.100Z,50.00
2022-09-16T20:44:22.349Z,49.00
2022-09-16T20:47:29.234Z,49.72
2022-09-16T20:50:33.951Z,48.99
2022-09-16T20:53:38.258Z,48.62
2022-09-16T20:56:43.396Z,48.51
2022-09-16T20:59:46.643Z,48.72
2022-09-16T21:02:49.920Z,48.53
2022-09-16T21:06:00.783Z,48.68
2022-09-16T21:09:06.808Z,48.36
2022-09-16T21:12:09.958Z,48.24
2022-09-16T21:15:13.170Z,47.89
2022-09-16T21:18:16.418Z,48.52
2022-09-16T21:21:21.059Z,48.77
2022-09-16T21:24:24.257Z,50.01
2022-09-16T21:27:27.458Z,50.25
2022-09-16T21:30:30.633Z,51.17
2022-09-16T21:33:35.997Z,50.63
2022-09-16T21:36:41.093Z,50.25
2022-09-16T21:39:44.255Z,50.02
2022-09-16T21:42:47.467Z,50.68
2022-09-16T21:45:50.640Z,50.72
2022-09-16T21:48:56.326Z,51.27
2022-09-16T21:52:00.880Z,50.39
2022-09-16T21:55:04.237Z,50.35
2022-09-16T21:58:07.701Z,50.56
2022-09-16T22:01:13.329Z,49.98
2022-09-16T22:04:18.227Z,50.12
2022-09-16T22:07:22.847Z,50.79
2022-09-16T22:10:26.017Z,50.96
2022-09-16T22:13:31.017Z,50.51
2022-09-16T22:16:37.218Z,50.85
2022-09-16T22:19:40.438Z,50.99
2022-09-16T22:22:45.076Z,51.62
2022-09-16T22:25:48.618Z,51.22
2022-09-16T22:28:52.272Z,51.49
2022-09-16T22:31:55.501Z,51.20
2022-09-16T22:34:58.733Z,50.71
2022-09-16T22:38:04.167Z,51.31
2022-09-16T22:41:09.338Z,51.27
2022-09-16T22:44:12.901Z,51.16
2022-09-16T22:47:16.131Z,51.44
2022-09-16T22:50:19.241Z,51.35
2022-09-16T22:53:24.789Z,52.47
2022-09-16T22:56:31.996Z,52.16
2022-09-16T22:59:35.469Z,51.93
2022-09-16T23:02:38.674Z,52.33
2022-09-16T23:05:42.083Z,52.73
2022-09-16T23:08:47.147Z,53.59
2022-09-16T23:11:50.447Z,53.34
2022-09-16T23:14:53.635Z,52.43
2022-09-16T23:17:56.894Z,52.62
2022-09-16T23:21:01.509Z,52.66
2022-09-16T23:24:08.009Z,53.35
2022-09-16T23:27:11.185Z,52.56
2022-09-16T23:30:14.767Z,52.84
2022-09-16T23:33:17.988Z,53.72
2022-09-16T23:36:21.359Z,52.83
2022-09-16T23:39:26.205Z,52.84
2022-09-16T23:42:29.417Z,52.22
2022-09-16T23:45:32.641Z,52.07
2022-09-16T23:48:35.820Z,54.06
2022-09-16T23:51:39.288Z,52.79
2022-09-16T23:54:43.891Z,52.72
2022-09-16T23:57:47.267Z,52.77
